createdAt,value
2019-01-11T00:01:33.606Z,21.90
2019-01-11T00:04:25.667Z,20.63
2019-01-11T00:07:04.667Z,21.17
2019-01-11T00:09:38.231Z,22.07
2019-01-11T00:12:09.847Z,20.80
2019-01-11T00:14:47.293Z,22.90
2019-01-11T00:17:31.616Z,21.03
2019-01-11T00:20:17.138Z,24.27
2019-01-11T00:22:50.687Z,20.20
2019-01-11T00:25:22.533Z,24.33
2019-01-11T00:27:59.997Z,22.27
2019-01-11T00:31:06.911Z,22.27
2019-01-11T00:33:47.913Z,22.20
2019-01-11T00:36:19.710Z,23.10
2019-01-11T00:39:36.529Z,21.60
2019-01-11T00:42:22.336Z,23.47
2019-01-11T00:45:11.126Z,22.10
2019-01-11T00:52:22.283Z,21.03
2019-01-11T00:55:33.340Z,21.13
2019-01-11T00:58:13.874Z,20.50
2019-01-11T01:00:48.326Z,24.47
2019-01-11T01:03:19.506Z,23.00
2019-01-11T01:05:51.404Z,24.37
2019-01-11T01:08:30.590Z,23.23
2019-01-11T01:11:32.547Z,22.97
2019-01-11T01:14:16.662Z,21.73
2019-01-11T01:20:57.958Z,17.83
2019-01-11T01:23:59.313Z,19.97
2019-01-11T01:27:10.234Z,19.57
2019-01-11T01:29:59.998Z,22.90
2019-01-11T01:32:31.603Z,20.87
2019-01-11T01:39:17.670Z,20.00
2019-01-11T01:42:19.273Z,20.67
2019-01-11T01:44:54.979Z,20.47
2019-01-11T01:47:34.432Z,21.50
2019-01-11T01:50:54.589Z,25.67
2019-01-11T01:53:39.815Z,23.47
2019-01-11T01:56:30.692Z,21.13
2019-01-11T01:59:12.150Z,21.37
2019-01-11T02:02:01.300Z,20.97
2019-01-11T02:04:45.485Z,24.07
2019-01-11T02:07:32.243Z,25.20
2019-01-11T02:10:22.735Z,23.77
2019-01-11T02:16:31.090Z,23.57
2019-01-11T02:20:00.754Z,26.20
2019-01-11T02:23:24.907Z,27.80
2019-01-11T02:26:41.561Z,25.90
2019-01-11T02:51:33.797Z,28.43
2019-01-11T02:54:50.773Z,28.67
2019-01-11T03:06:14.778Z,28.27
2019-01-11T03:09:04.366Z,29.67
2019-01-11T03:13:11.917Z,34.00
2019-01-11T03:16:38.950Z,34.47
2019-01-11T03:19:47.535Z,32.07
2019-01-11T03:22:47.007Z,28.40
2019-01-11T03:29:06.895Z,30.30
2019-01-11T03:32:03.693Z,30.30
2019-01-11T03:35:27.448Z,33.47
2019-01-11T03:46:27.625Z,31.53
2019-01-11T03:49:28.597Z,31.70
2019-01-11T04:06:38.253Z,36.53
2019-01-11T04:10:14.788Z,34.70
2019-01-11T04:13:55.769Z,36.83
2019-01-11T04:17:30.021Z,32.43
2019-01-11T04:21:23.188Z,35.53
2019-01-11T04:24:04.200Z,37.20
2019-01-11T04:27:07.892Z,30.97
2019-01-11T04:29:43.131Z,29.47
2019-01-11T04:32:30.986Z,32.43
2019-01-11T04:35:09.230Z,30.67
2019-01-11T04:37:43.563Z,30.20
2019-01-11T04:40:25.106Z,29.47
2019-01-11T04:43:23.198Z,28.70
2019-01-11T04:46:01.151Z,31.23
2019-01-11T04:48:32.928Z,32.80
2019-01-11T04:51:04.511Z,27.53
2019-01-11T04:53:36.199Z,23.10
2019-01-11T04:56:07.742Z,23.60
2019-01-11T04:58:39.483Z,24.97
2019-01-11T05:01:11.007Z,24.63
2019-01-11T05:03:42.567Z,20.87
2019-01-11T05:06:19.206Z,23.43
2019-01-11T05:08:50.598Z,22.83
2019-01-11T05:11:22.283Z,21.27
2019-01-11T05:13:56.811Z,21.77
2019-01-11T05:16:28.486Z,19.30
2019-01-11T05:18:59.778Z,18.30
2019-01-11T05:21:38.386Z,18.70
2019-01-11T05:24:11.954Z,19.00
2019-01-11T05:26:52.802Z,18.40
2019-01-11T05:29:24.213Z,22.27
2019-01-11T05:32:03.608Z,23.13
2019-01-11T05:34:40.853Z,21.47
2019-01-11T05:37:12.675Z,19.43
2019-01-11T05:39:44.432Z,17.83
2019-01-11T05:42:15.861Z,15.30
2019-01-11T05:44:51.800Z,14.50
2019-01-11T05:47:31.965Z,14.93
2019-01-11T05:50:06.717Z,18.80
2019-01-11T05:53:02.216Z,16.50
2019-01-11T06:03:48.577Z,15.30
2019-01-11T06:07:14.366Z,14.83
2019-01-11T06:10:00.850Z,16.80
2019-01-11T06:13:17.434Z,13.50
2019-01-11T06:15:58.124Z,11.00
2019-01-11T06:18:31.430Z,13.03
2019-01-11T06:21:06.589Z,13.10
2019-01-11T06:23:38.780Z,9.37
2019-01-11T06:26:13.564Z,12.60
2019-01-11T06:28:45.173Z,12.10
2019-01-11T06:31:18.317Z,10.57
2019-01-11T06:33:51.911Z,12.50
2019-01-11T06:36:25.273Z,9.83
2019-01-11T06:39:09.509Z,12.30
2019-01-11T06:41:50.221Z,14.60
2019-01-11T06:44:31.769Z,12.03
2019-01-11T06:51:05.617Z,13.67
2019-01-11T06:53:42.090Z,12.90
2019-01-11T06:56:18.531Z,16.10
2019-01-11T06:58:50.743Z,17.50
2019-01-11T07:01:36.052Z,15.07
2019-01-11T07:04:08.954Z,17.03
2019-01-11T07:06:42.700Z,16.37
2019-01-11T07:09:29.242Z,19.40
2019-01-11T07:12:09.099Z,20.13
2019-01-11T07:14:44.579Z,17.57
2019-01-11T07:17:19.870Z,16.03
2019-01-11T07:20:05.705Z,16.40
2019-01-11T07:22:38.132Z,14.30
2019-01-11T07:32:01.936Z,21.30
2019-01-11T07:34:33.261Z,22.93
2019-01-11T07:37:05.105Z,20.73
2019-01-11T07:39:36.385Z,21.23
2019-01-11T07:42:07.468Z,23.17
2019-01-11T07:44:38.718Z,19.23
2019-01-11T07:47:10.016Z,20.43
2019-01-11T07:49:42.973Z,14.63
2019-01-11T07:52:14.232Z,19.90
2019-01-11T07:54:45.568Z,29.13
2019-01-11T07:57:17.121Z,20.70
2019-01-11T07:59:48.403Z,19.90
2019-01-11T08:02:19.953Z,15.57
2019-01-11T08:04:51.326Z,20.60
2019-01-11T08:07:22.492Z,18.10
2019-01-11T08:09:53.908Z,17.97
2019-01-11T08:12:25.188Z,18.37
2019-01-11T08:14:56.545Z,21.03
2019-01-11T08:17:28.915Z,25.63
2019-01-11T08:20:00.222Z,21.07
2019-01-11T08:22:41.634Z,27.13
2019-01-11T08:25:13.761Z,18.27
2019-01-11T08:27:46.450Z,20.60
2019-01-11T08:30:18.202Z,16.57
2019-01-11T08:32:49.981Z,14.43
2019-01-11T08:35:21.312Z,17.03
2019-01-11T08:37:52.960Z,17.43
2019-01-11T08:40:24.357Z,15.63
2019-01-11T08:42:55.989Z,24.00
2019-01-11T08:45:27.195Z,16.70
2019-01-11T08:47:58.200Z,16.13
2019-01-11T08:50:30.245Z,16.73
2019-01-11T08:53:01.492Z,23.07
2019-01-11T08:55:32.838Z,14.87
2019-01-11T08:58:04.293Z,19.50
2019-01-11T09:00:35.312Z,11.83
2019-01-11T09:03:07.600Z,20.53
2019-01-11T09:05:38.904Z,12.47
2019-01-11T09:08:10.385Z,16.30
2019-01-11T09:10:41.926Z,19.33
2019-01-11T09:13:13.098Z,15.03
2019-01-11T09:15:44.480Z,11.63
2019-01-11T09:18:33.552Z,13.60
2019-01-11T09:21:09.354Z,14.83
2019-01-11T09:23:37.386Z,14.97
2019-01-11T09:26:08.417Z,18.63
2019-01-11T09:28:41.261Z,20.13
2019-01-11T09:31:15.192Z,12.60
2019-01-11T09:33:46.872Z,11.87
2019-01-11T09:36:17.926Z,15.57
2019-01-11T09:38:49.220Z,15.07
2019-01-11T09:41:20.685Z,13.27
2019-01-11T09:43:52.029Z,12.77
2019-01-11T09:46:23.186Z,9.10
2019-01-11T09:49:00.291Z,10.30
2019-01-11T09:51:31.538Z,15.57
2019-01-11T09:54:02.681Z,12.23
2019-01-11T09:56:34.020Z,15.57
2019-01-11T09:59:05.504Z,13.47
2019-01-11T10:01:36.627Z,8.27
2019-01-11T10:04:09.492Z,10.10
2019-01-11T10:06:47.028Z,12.80
2019-01-11T10:09:18.543Z,6.47
2019-01-11T10:11:49.857Z,10.97
2019-01-11T10:14:21.037Z,9.23
2019-01-11T10:16:52.457Z,8.47
2019-01-11T10:19:23.605Z,8.53
2019-01-11T10:21:54.800Z,10.53
2019-01-11T10:24:25.845Z,6.70
2019-01-11T10:26:57.079Z,6.57
2019-01-11T10:29:28.155Z,8.27
2019-01-11T10:31:59.586Z,10.03
2019-01-11T10:34:30.712Z,8.70
2019-01-11T10:37:02.113Z,7.60
2019-01-11T10:39:33.674Z,7.63
2019-01-11T10:42:04.884Z,9.37
2019-01-11T10:44:36.416Z,5.87
2019-01-11T10:47:07.928Z,11.97
2019-01-11T10:49:39.938Z,8.13
2019-01-11T10:52:11.133Z,11.10
2019-01-11T10:54:43.577Z,7.10
2019-01-11T10:57:15.126Z,7.77
2019-01-11T10:59:46.613Z,7.50
2019-01-11T11:02:18.245Z,7.63
2019-01-11T11:04:49.669Z,14.73
2019-01-11T11:07:20.948Z,8.00
2019-01-11T11:09:52.176Z,6.37
2019-01-11T11:12:23.904Z,7.73
2019-01-11T11:14:56.059Z,8.40
2019-01-11T11:17:26.971Z,12.10
2019-01-11T11:19:58.024Z,8.93
2019-01-11T11:22:30.592Z,7.10
2019-01-11T11:25:01.602Z,8.33
2019-01-11T11:27:32.697Z,10.27
2019-01-11T11:30:03.763Z,9.07
2019-01-11T11:32:51.101Z,6.83
2019-01-11T11:35:22.163Z,4.87
2019-01-11T11:37:53.393Z,7.93
2019-01-11T11:40:26.585Z,12.70
2019-01-11T11:42:57.756Z,6.50
2019-01-11T11:45:33.285Z,9.90
2019-01-11T11:48:06.106Z,10.97
2019-01-11T11:50:37.596Z,7.30
2019-01-11T11:53:08.739Z,10.93
2019-01-11T11:55:40.145Z,7.90
2019-01-11T11:58:11.084Z,4.40
2019-01-11T12:00:43.817Z,11.90
2019-01-11T12:03:15.085Z,9.00
2019-01-11T12:05:46.160Z,4.73
2019-01-11T12:08:20.119Z,5.17
2019-01-11T12:10:52.238Z,4.60
2019-01-11T12:13:24.676Z,7.13
2019-01-11T12:15:56.176Z,4.80
2019-01-11T12:18:27.825Z,4.67
2019-01-11T12:20:59.068Z,3.20
2019-01-11T12:23:30.309Z,4.07
2019-01-11T12:26:01.629Z,6.73
2019-01-11T12:28:32.530Z,5.43
2019-01-11T12:31:03.865Z,8.30
2019-01-11T12:33:35.204Z,6.47
2019-01-11T12:36:06.728Z,6.33
2019-01-11T12:38:38.394Z,8.27
2019-01-11T12:41:09.963Z,4.20
2019-01-11T12:43:41.260Z,3.23
2019-01-11T12:46:13.847Z,4.17
2019-01-11T12:48:45.087Z,4.10
2019-01-11T12:51:18.945Z,7.30
2019-01-11T12:53:53.774Z,2.63
2019-01-11T12:56:24.826Z,5.03
2019-01-11T12:58:55.816Z,5.40
2019-01-11T13:01:26.896Z,8.37
2019-01-11T13:03:57.928Z,5.77
2019-01-11T13:06:29.680Z,6.77
2019-01-11T13:09:00.884Z,4.83
2019-01-11T13:11:33.296Z,4.10
2019-01-11T13:14:04.812Z,4.83
2019-01-11T13:16:35.974Z,6.63
2019-01-11T13:19:07.500Z,8.63
2019-01-11T13:21:38.749Z,9.17
2019-01-11T13:24:09.839Z,9.93
2019-01-11T13:26:41.043Z,9.23
2019-01-11T13:29:13.044Z,11.50
2019-01-11T13:31:44.557Z,9.37
2019-01-11T13:34:15.763Z,13.60
2019-01-11T13:36:47.016Z,13.60
2019-01-11T13:39:18.126Z,6.97
2019-01-11T13:41:49.360Z,14.90
2019-01-11T13:44:21.300Z,13.37
2019-01-11T13:46:52.710Z,9.70
2019-01-11T13:49:25.105Z,8.03
2019-01-11T13:51:56.452Z,11.03
2019-01-11T13:54:27.729Z,8.10
2019-01-11T13:56:58.829Z,7.77
2019-01-11T13:59:30.399Z,8.17
2019-01-11T14:02:01.816Z,9.83
2019-01-11T14:04:32.792Z,12.13
2019-01-11T14:07:04.084Z,9.53
2019-01-11T14:09:35.527Z,9.63
2019-01-11T14:12:08.085Z,10.43
2019-01-11T14:14:39.559Z,12.00
2019-01-11T14:17:10.497Z,13.83
2019-01-11T14:19:42.417Z,13.87
2019-01-11T14:22:13.728Z,10.07
2019-01-11T14:24:45.016Z,9.93
2019-01-11T14:27:16.256Z,11.50
2019-01-11T14:29:47.708Z,8.07
2019-01-11T14:32:19.087Z,9.30
2019-01-11T14:34:50.446Z,9.77
2019-01-11T14:37:21.840Z,10.17
2019-01-11T14:39:53.008Z,7.00
2019-01-11T14:42:24.033Z,6.70
2019-01-11T14:44:55.307Z,11.20
2019-01-11T14:47:26.821Z,6.37
2019-01-11T14:49:57.918Z,7.17
2019-01-11T14:52:29.174Z,12.57
2019-01-11T14:55:00.005Z,8.43
2019-01-11T14:57:31.392Z,7.47
2019-01-11T15:00:02.900Z,6.30
2019-01-11T15:02:34.081Z,8.53
2019-01-11T15:05:06.671Z,10.37
2019-01-11T15:07:37.836Z,8.90
2019-01-11T15:10:11.041Z,8.60
2019-01-11T15:12:43.596Z,7.20
2019-01-11T15:15:14.930Z,7.30
2019-01-11T15:17:46.225Z,5.53
2019-01-11T15:20:18.572Z,8.43
2019-01-11T15:22:50.313Z,8.17
2019-01-11T15:25:21.626Z,8.47
2019-01-11T15:27:53.073Z,7.07
2019-01-11T15:30:24.480Z,7.60
2019-01-11T15:32:56.167Z,7.90
2019-01-11T15:35:29.288Z,9.13
2019-01-11T15:38:00.399Z,14.60
2019-01-11T15:40:36.545Z,6.13
2019-01-11T15:43:08.024Z,7.47
2019-01-11T15:45:39.348Z,10.90
2019-01-11T15:48:16.781Z,6.47
2019-01-11T15:50:58.883Z,7.40
2019-01-11T15:53:42.626Z,9.37
2019-01-11T15:56:16.593Z,6.70
2019-01-11T15:58:48.016Z,7.27
2019-01-11T16:01:19.942Z,9.47
2019-01-11T16:03:50.968Z,5.50
2019-01-11T16:06:24.548Z,9.30
2019-01-11T16:10:01.162Z,7.57
2019-01-11T16:12:41.032Z,4.70
2019-01-11T16:16:10.903Z,8.60
2019-01-11T16:18:42.500Z,7.03
2019-01-11T16:21:13.423Z,6.67
2019-01-11T16:23:44.570Z,7.17
2019-01-11T16:26:15.876Z,9.30
2019-01-11T16:28:47.038Z,7.17
2019-01-11T16:31:18.512Z,7.93
2019-01-11T16:33:51.334Z,8.60
2019-01-11T16:36:22.484Z,9.37
2019-01-11T16:38:53.656Z,9.00
2019-01-11T16:41:25.468Z,6.23
2019-01-11T16:43:56.757Z,8.93
2019-01-11T16:46:28.020Z,10.63
2019-01-11T16:48:59.064Z,9.77
2019-01-11T16:51:33.493Z,6.70
2019-01-11T16:54:04.874Z,10.07
2019-01-11T16:56:35.733Z,8.57
2019-01-11T16:59:07.501Z,6.17
2019-01-11T17:01:40.591Z,13.47
2019-01-11T17:04:12.613Z,6.00
2019-01-11T17:06:44.378Z,8.33
2019-01-11T17:09:16.043Z,10.20
2019-01-11T17:11:50.542Z,7.07
2019-01-11T17:14:22.062Z,10.50
2019-01-11T17:16:58.113Z,9.00
2019-01-11T17:19:29.283Z,7.17
2019-01-11T17:22:00.477Z,10.93
2019-01-11T17:24:31.743Z,9.93
2019-01-11T17:27:03.015Z,12.57
2019-01-11T17:29:35.437Z,5.03
2019-01-11T17:32:06.864Z,6.53
2019-01-11T17:34:39.130Z,7.53
2019-01-11T17:37:15.859Z,9.63
2019-01-11T17:39:47.128Z,9.07
2019-01-11T17:42:20.168Z,8.37
2019-01-11T17:44:51.812Z,9.17
2019-01-11T17:47:22.832Z,8.07
2019-01-11T17:49:53.816Z,7.07
2019-01-11T17:52:25.020Z,6.90
2019-01-11T17:54:56.157Z,6.13
2019-01-11T17:57:27.260Z,4.57
2019-01-11T17:59:58.406Z,5.07
2019-01-11T18:02:29.906Z,5.80
2019-01-11T18:05:01.068Z,5.30
2019-01-11T18:07:32.750Z,2.97
2019-01-11T18:10:06.061Z,3.00
2019-01-11T18:12:36.920Z,5.20
2019-01-11T18:15:11.256Z,5.90
2019-01-11T18:17:43.068Z,6.70
2019-01-11T18:20:16.962Z,7.80
2019-01-11T18:22:47.876Z,8.43
2019-01-11T18:25:20.816Z,9.50
2019-01-11T18:27:52.302Z,6.10
2019-01-11T18:30:23.440Z,6.37
2019-01-11T18:32:54.648Z,6.93
2019-01-11T18:35:26.468Z,3.80
2019-01-11T18:37:57.903Z,9.30
2019-01-11T18:40:29.200Z,7.33
2019-01-11T18:43:02.009Z,7.50
2019-01-11T18:45:33.416Z,6.40
2019-01-11T18:48:04.659Z,7.23
2019-01-11T18:50:36.152Z,7.53
2019-01-11T18:53:13.603Z,7.20
2019-01-11T18:55:41.280Z,8.50
2019-01-11T18:58:15.453Z,10.37
2019-01-11T19:00:47.221Z,6.20
2019-01-11T19:03:18.249Z,8.27
2019-01-11T19:05:50.009Z,7.83
2019-01-11T19:08:21.598Z,7.47
2019-01-11T19:10:53.027Z,5.93
2019-01-11T19:13:24.412Z,8.23
2019-01-11T19:15:55.471Z,4.93
2019-01-11T19:18:26.840Z,9.30
2019-01-11T19:20:58.038Z,10.23
2019-01-11T19:23:29.407Z,7.37
2019-01-11T19:26:00.742Z,5.90
2019-01-11T19:28:31.740Z,6.37
2019-01-11T19:31:03.216Z,4.00
2019-01-11T19:33:34.512Z,5.00
2019-01-11T19:36:06.611Z,4.87
2019-01-11T19:38:37.895Z,8.47
2019-01-11T19:41:09.514Z,5.67
2019-01-11T19:43:40.711Z,4.17
2019-01-11T19:46:13.280Z,5.70
2019-01-11T19:48:47.343Z,2.90
2019-01-11T19:51:18.660Z,4.30
2019-01-11T19:53:49.683Z,7.30
2019-01-11T19:56:21.919Z,4.53
2019-01-11T19:58:53.223Z,7.83
2019-01-11T20:01:24.198Z,5.03
2019-01-11T20:03:55.344Z,3.30
2019-01-11T20:06:26.929Z,8.00
2019-01-11T20:08:58.232Z,3.10
2019-01-11T20:11:29.444Z,6.87
2019-01-11T20:14:01.533Z,6.60
2019-01-11T20:16:32.940Z,5.40
2019-01-11T20:19:05.261Z,4.53
2019-01-11T20:21:36.594Z,6.87
2019-01-11T20:24:09.133Z,9.33
2019-01-11T20:26:40.203Z,4.03
2019-01-11T20:29:13.791Z,6.00
2019-01-11T20:31:50.081Z,4.13
2019-01-11T20:34:21.918Z,9.13
2019-01-11T20:37:06.994Z,5.67
2019-01-11T20:39:38.781Z,6.13
2019-01-11T20:42:10.064Z,9.20
2019-01-11T20:44:41.248Z,5.27
2019-01-11T20:47:12.624Z,6.13
2019-01-11T20:49:44.196Z,8.77
2019-01-11T20:52:15.582Z,9.50
2019-01-11T20:54:48.300Z,4.17
2019-01-11T20:57:19.724Z,9.93
2019-01-11T20:59:51.573Z,5.40
2019-01-11T21:02:23.225Z,4.07
2019-01-11T21:04:59.418Z,6.93
2019-01-11T21:07:30.948Z,8.87
2019-01-11T21:10:01.970Z,7.70
2019-01-11T21:12:33.107Z,8.33
2019-01-11T21:15:05.141Z,5.27
2019-01-11T21:17:36.824Z,7.73
2019-01-11T21:20:11.755Z,9.77
2019-01-11T21:22:43.075Z,9.23
2019-01-11T21:25:15.016Z,6.80
2019-01-11T21:27:47.213Z,6.23
2019-01-11T21:30:20.808Z,8.53
2019-01-11T21:32:52.275Z,7.63
2019-01-11T21:35:23.997Z,3.43
2019-01-11T21:37:55.785Z,5.33
2019-01-11T21:40:27.085Z,9.27
2019-01-11T21:42:58.309Z,5.17
2019-01-11T21:45:29.295Z,3.73
2019-01-11T21:48:00.290Z,6.40
2019-01-11T21:50:32.768Z,3.03
2019-01-11T21:53:06.636Z,5.73
2019-01-11T21:55:42.398Z,6.57
2019-01-11T21:58:13.685Z,8.43
2019-01-11T22:00:55.392Z,4.57
2019-01-11T22:03:26.983Z,4.67
2019-01-11T22:05:58.615Z,2.97
2019-01-11T22:08:29.721Z,3.73
2019-01-11T22:11:01.041Z,6.13
2019-01-11T22:13:32.376Z,3.80
2019-01-11T22:16:03.404Z,6.47
2019-01-11T22:18:34.646Z,4.87
2019-01-11T22:21:05.955Z,3.03
2019-01-11T22:23:37.192Z,5.30
2019-01-11T22:26:08.484Z,5.40
2019-01-11T22:28:39.708Z,4.47
2019-01-11T22:31:10.933Z,4.57
2019-01-11T22:33:42.226Z,9.30
2019-01-11T22:36:13.517Z,2.90
2019-01-11T22:38:44.514Z,6.13
2019-01-11T22:41:17.911Z,5.33
2019-01-11T22:43:49.592Z,3.70
2019-01-11T22:46:20.616Z,4.93
2019-01-11T22:48:55.300Z,3.80
2019-01-11T22:51:26.256Z,7.47
2019-01-11T22:53:57.488Z,2.20
2019-01-11T22:56:31.412Z,6.73
2019-01-11T22:59:02.476Z,2.83
2019-01-11T23:02:05.021Z,4.03
2019-01-11T23:04:36.480Z,5.70
2019-01-11T23:07:14.314Z,3.80
2019-01-11T23:09:50.809Z,8.10
2019-01-11T23:12:50.197Z,3.43
2019-01-11T23:15:29.383Z,4.37
2019-01-11T23:18:09.988Z,5.83
2019-01-11T23:20:41.592Z,6.07
2019-01-11T23:23:14.708Z,7.00
2019-01-11T23:25:46.129Z,5.30
2019-01-11T23:28:17.268Z,3.57
2019-01-11T23:30:48.564Z,2.37
2019-01-11T23:33:19.545Z,5.37
2019-01-11T23:35:50.942Z,4.90
2019-01-11T23:38:22.492Z,4.67
2019-01-11T23:40:53.726Z,3.90
2019-01-11T23:43:24.985Z,7.03
2019-01-11T23:45:56.353Z,3.30
2019-01-11T23:48:28.671Z,4.13
2019-01-11T23:51:00.025Z,4.43
2019-01-11T23:53:31.432Z,3.83
2019-01-11T23:56:02.965Z,4.10
2019-01-11T23:58:34.360Z,5.70
